Time;durP1;ratioP1;P1;durP2;ratioP2;P2;SDS_P1;SDS_P2;PMS_P1;PMS_P2;Temp;Humidity;BMP_temperature;BMP_pressure;BME280_temperature;BME280_humidity;BME280_pressure;Samples;Min_cycle;Max_cycle;Signal;HPM_P1;HPM_P2
2021/06/29 00:00:09;;;;;;;;;;;;;;;24.17;64.12;98510.91;3551046;27;19938;-69
2021/06/29 00:02:02;;;;;;;;;;;;;;;24.16;64.31;98522.88;2879592;27;19272579;-70
2021/06/29 00:04:13;;;;;;;;;;;;;;;24.13;64.03;98510.69;3551166;27;19938;-69
2021/06/29 00:06:26;;;;;;;;;;;;;;;24.10;64.00;98510.53;3551452;27;19975;-70
2021/06/29 00:08:55;;;;;;;;;;;;;;;24.07;64.01;98519.34;3551188;27;20019;-70
2021/06/29 00:10:46;;;;;;;;;;;;;;;24.02;64.16;98511.28;2433171;27;30854385;-70
2021/06/29 00:12:38;;;;;;;;;;;;;;;24.02;63.83;98508.56;2646031;27;24654922;-70
2021/06/29 00:15:01;;;;;;;;;;;;;;;24.03;63.79;98505.53;3549357;27;19955;-69
2021/06/29 00:17:13;;;;;;;;;;;;;;;24.00;63.94;98502.63;3565658;27;20034;-70
2021/06/29 00:19:06;;;;;;;;;;;;;;;23.99;63.90;98511.94;2891120;27;19206486;-70
2021/06/29 00:21:18;;;;;;;;;;;;;;;23.98;63.68;98502.13;3550369;27;19930;-69
2021/06/29 00:23:28;;;;;;;;;;;;;;;23.98;63.77;98513.03;3538839;27;20393;-69
2021/06/29 00:25:20;;;;;;;;;;;;;;;23.98;63.82;98502.13;2888229;27;19293299;-70
2021/06/29 00:27:12;;;;;;;;;;;;;;;23.94;63.68;98500.03;2867035;27;18516305;-69
2021/06/29 00:29:35;;;;;;;;;;;;;;;23.92;63.64;98502.25;3535072;27;19966;-70
2021/06/29 00:31:47;;;;;;;;;;;;;;;23.90;63.69;98500.97;3554611;27;19946;-68
2021/06/29 00:33:39;;;;;;;;;;;;;;;23.92;63.66;98496.03;2852391;27;18616838;-69
2021/06/29 00:35:30;;;;;;;;;;;;;;;23.91;63.75;98489.78;2889432;27;19258158;-70
2021/06/29 00:37:23;;;;;;;;;;;;;;;23.88;63.86;98495.84;2891402;27;19214110;-70
2021/06/29 00:39:35;;;;;;;;;;;;;;;23.89;63.65;98502.91;3551025;27;19923;-69
2021/06/29 00:41:27;;;;;;;;;;;;;;;23.91;63.73;98508.03;2864777;27;19230450;-70
2021/06/29 00:43:18;;;;;;;;;;;;;;;23.87;63.75;98516.00;2869314;27;19322861;-68
2021/06/29 00:45:38;;;;;;;;;;;;;;;23.84;63.56;98513.91;3530477;27;20291;-70
2021/06/29 00:47:50;;;;;;;;;;;;;;;23.83;63.68;98515.03;3551465;27;19921;-70
2021/06/29 00:50:10;;;;;;;;;;;;;;;23.84;63.53;98511.19;3515451;27;19925;-70
2021/06/29 00:52:04;;;;;;;;;;;;;;;23.83;63.51;98512.31;2882950;27;19274013;-69
2021/06/29 00:54:15;;;;;;;;;;;;;;;23.86;63.61;98514.41;3551233;27;19922;-70
2021/06/29 00:56:26;;;;;;;;;;;;;;;23.85;63.78;98507.38;3541314;27;19969;-70
2021/06/29 00:58:19;;;;;;;;;;;;;;;23.86;63.38;98508.97;2545122;27;27689464;-70
2021/06/29 01:00:12;;;;;;;;;;;;;;;23.87;63.53;98505.13;2973960;27;15762944;-70
2021/06/29 01:02:24;;;;;;;;;;;;;;;23.88;63.41;98500.47;3542017;27;20040;-69
2021/06/29 01:04:37;;;;;;;;;;;;;;;23.87;63.17;98507.03;3550256;27;20058;-70
2021/06/29 01:06:49;;;;;;;;;;;;;;;23.86;63.24;98505.44;3551294;27;19968;-69
2021/06/29 01:09:12;;;;;;;;;;;;;;;23.89;63.33;98507.53;3535235;27;20337;-70
2021/06/29 01:11:05;;;;;;;;;;;;;;;23.90;63.27;98507.22;2887704;27;19307602;-70
2021/06/29 01:13:38;;;;;;;;;;;;;;;23.93;63.13;98512.06;3524544;27;19924;-70
2021/06/29 01:15:30;;;;;;;;;;;;;;;23.96;62.97;98507.91;2940046;27;15758731;-69
2021/06/29 01:17:40;;;;;;;;;;;;;;;23.99;63.13;98511.94;3527441;27;19959;-68
2021/06/29 01:19:47;;;;;;;;;;;;;;;23.99;63.07;98507.28;2856168;27;19208470;-69
2021/06/29 01:21:41;;;;;;;;;;;;;;;23.97;62.98;98514.16;2326683;27;33908101;-68
2021/06/29 01:23:56;;;;;;;;;;;;;;;23.94;63.19;98518.28;3536906;27;19927;-69
2021/06/29 01:26:23;;;;;;;;;;;;;;;23.91;63.01;98513.47;2884040;27;19402521;-68
2021/06/29 01:28:45;;;;;;;;;;;;;;;23.88;63.19;98514.09;3550928;27;20340;-70
2021/06/29 01:31:03;;;;;;;;;;;;;;;23.83;63.43;98514.25;3551228;27;19941;-70
2021/06/29 01:33:17;;;;;;;;;;;;;;;23.84;63.56;98515.84;3531992;27;20697;-69
2021/06/29 01:35:10;;;;;;;;;;;;;;;23.82;63.42;98518.06;2435247;27;30806346;-70
2021/06/29 01:37:23;;;;;;;;;;;;;;;23.85;63.47;98518.25;3551342;27;19964;-69
2021/06/29 01:39:35;;;;;;;;;;;;;;;23.88;63.28;98516.81;3551038;27;19972;-70
2021/06/29 01:41:42;;;;;;;;;;;;;;;23.84;63.23;98507.66;3529189;27;19925;-68
2021/06/29 01:43:41;;;;;;;;;;;;;;;23.83;63.26;98509.59;2855587;27;18532944;-68
2021/06/29 01:45:34;;;;;;;;;;;;;;;23.84;63.33;98515.84;2760990;27;21601017;-69
2021/06/29 01:47:51;;;;;;;;;;;;;;;23.84;63.21;98511.19;2448041;27;30904896;-70
2021/06/29 01:49:43;;;;;;;;;;;;;;;23.84;63.26;98513.91;2327628;27;33886744;-69
2021/06/29 01:51:55;;;;;;;;;;;;;;;23.85;62.98;98520.97;3551380;27;19926;-69
2021/06/29 01:54:04;;;;;;;;;;;;;;;23.80;63.31;98520.28;3511762;27;19995;-69
2021/06/29 01:55:55;;;;;;;;;;;;;;;23.75;63.35;98523.94;2538135;27;27888524;-71
2021/06/29 01:57:49;;;;;;;;;;;;;;;23.75;63.20;98517.69;2888365;27;19289852;-70
2021/06/29 02:00:09;;;;;;;;;;;;;;;23.74;63.16;98519.59;3535027;27;20356;-71
2021/06/29 02:02:23;;;;;;;;;;;;;;;23.73;62.91;98510.66;3535870;27;19928;-70
2021/06/29 02:04:46;;;;;;;;;;;;;;;23.73;63.19;98504.41;3535183;27;20398;-69
2021/06/29 02:06:39;;;;;;;;;;;;;;;23.74;63.17;98506.00;2325928;27;33928162;-70
2021/06/29 02:08:52;;;;;;;;;;;;;;;23.75;63.04;98512.25;3551244;27;19926;-68
2021/06/29 02:10:44;;;;;;;;;;;;;;;23.73;62.89;98507.13;2887156;27;19328396;-71
2021/06/29 02:12:57;;;;;;;;;;;;;;;23.75;62.92;98507.63;3545649;27;19930;-68
2021/06/29 02:15:09;;;;;;;;;;;;;;;23.76;63.00;98509.22;3550918;27;20408;-69
2021/06/29 02:17:16;;;;;;;;;;;;;;;23.77;62.60;98513.53;3529399;27;19925;-70
2021/06/29 02:19:09;;;;;;;;;;;;;;;23.76;62.84;98514.66;2889806;27;19247092;-67
2021/06/29 02:21:02;;;;;;;;;;;;;;;23.78;62.76;98515.16;2648428;27;24736629;-70
2021/06/29 02:22:55;;;;;;;;;;;;;;;23.80;62.69;98515.66;2859885;27;19284464;-69
2021/06/29 02:24:47;;;;;;;;;;;;;;;23.80;62.64;98515.66;2891416;27;19210316;-68
2021/06/29 02:26:58;;;;;;;;;;;;;;;23.80;62.81;98515.66;3551278;27;20309;-70
2021/06/29 02:29:11;;;;;;;;;;;;;;;23.83;62.67;98520.47;3551248;27;19926;-68
2021/06/29 02:31:04;;;;;;;;;;;;;;;23.83;62.60;98520.47;2889243;27;19255263;-70
2021/06/29 02:32:56;;;;;;;;;;;;;;;23.81;62.57;98517.25;2957373;27;15766502;-69
2021/06/29 02:34:48;;;;;;;;;;;;;;;23.82;62.79;98523.50;2888630;27;19282565;-70
2021/06/29 02:36:59;;;;;;;;;;;;;;;23.79;62.75;98524.91;3551179;27;19926;-69
2021/06/29 02:39:10;;;;;;;;;;;;;;;23.78;62.75;98528.78;3551672;27;19927;-69
2021/06/29 02:41:22;;;;;;;;;;;;;;;23.80;62.66;98529.28;3527684;27;20850;-70
2021/06/29 02:43:15;;;;;;;;;;;;;;;23.76;62.78;98530.19;2874145;27;19225166;-69
2021/06/29 02:45:08;;;;;;;;;;;;;;;23.72;62.82;98532.72;2877232;27;19345375;-70
2021/06/29 02:47:01;;;;;;;;;;;;;;;23.73;62.71;98528.91;2886032;27;19356961;-69
2021/06/29 02:48:56;;;;;;;;;;;;;;;23.75;62.74;98529.41;2864025;27;18590249;-68
2021/06/29 02:50:48;;;;;;;;;;;;;;;23.79;62.71;98524.91;2544523;27;27711237;-69
2021/06/29 02:52:55;;;;;;;;;;;;;;;23.83;62.61;98525.13;3522859;27;19925;-69
2021/06/29 02:54:47;;;;;;;;;;;;;;;23.85;62.73;98525.59;2751569;27;21565898;-70
2021/06/29 02:57:04;;;;;;;;;;;;;;;23.87;62.48;98523.38;3535112;27;19923;-70
2021/06/29 02:59:16;;;;;;;;;;;;;;;23.87;62.60;98526.09;3551508;27;19964;-70
2021/06/29 03:01:28;;;;;;;;;;;;;;;23.85;62.59;98525.59;3551013;27;20003;-69
2021/06/29 03:03:39;;;;;;;;;;;;;;;23.82;62.49;98526.22;3533159;27;19947;-69
2021/06/29 03:05:50;;;;;;;;;;;;;;;23.71;62.91;98528.38;3527454;27;19924;-70
2021/06/29 03:07:43;;;;;;;;;;;;;;;23.70;62.73;98534.94;2887025;27;19334447;-69
2021/06/29 03:10:07;;;;;;;;;;;;;;;23.71;63.00;98550.13;3535089;27;19923;-67
2021/06/29 03:11:59;;;;;;;;;;;;;;;23.72;62.94;98540.88;2884528;27;19370479;-70
2021/06/29 03:13:53;;;;;;;;;;;;;;;23.71;62.83;98542.75;2883401;27;19143332;-69
2021/06/29 03:15:46;;;;;;;;;;;;;;;23.68;62.70;98539.88;2885670;27;19332114;-68
2021/06/29 03:17:57;;;;;;;;;;;;;;;23.62;63.05;98544.63;3551198;27;19922;-70
2021/06/29 03:20:09;;;;;;;;;;;;;;;23.64;63.03;98536.16;3551086;27;19922;-70
2021/06/29 03:22:02;;;;;;;;;;;;;;;23.65;63.03;98530.41;2885928;27;19353113;-70
2021/06/29 03:23:55;;;;;;;;;;;;;;;23.65;62.81;98540.50;2637097;27;24815954;-70
2021/06/29 03:25:49;;;;;;;;;;;;;;;23.64;62.89;98530.72;2862985;27;18604329;-70
2021/06/29 03:27:42;;;;;;;;;;;;;;;23.66;62.85;98532.00;2761103;27;21611667;-70
2021/06/29 03:29:36;;;;;;;;;;;;;;;23.68;62.90;98529.78;2755404;27;21760256;-68
2021/06/29 03:31:48;;;;;;;;;;;;;;;23.75;62.86;98536.72;3550678;27;19972;-69
2021/06/29 03:34:13;;;;;;;;;;;;;;;23.83;62.61;98536.81;3521076;27;19928;-70
2021/06/29 03:36:42;;;;;;;;;;;;;;;23.92;62.62;98529.47;3548625;27;19927;-70
2021/06/29 03:38:34;;;;;;;;;;;;;;;23.94;62.43;98529.97;2865203;27;19284466;-69
2021/06/29 03:40:45;;;;;;;;;;;;;;;23.93;62.45;98525.66;3551164;27;20400;-68
2021/06/29 03:42:56;;;;;;;;;;;;;;;23.97;62.62;98535.94;3548062;27;19965;-70
2021/06/29 03:45:12;;;;;;;;;;;;;;;24.04;62.55;98539.00;3534919;27;19924;-70
2021/06/29 03:47:05;;;;;;;;;;;;;;;24.02;62.28;98535.78;2883323;27;19397472;-69
2021/06/29 03:48:57;;;;;;;;;;;;;;;24.00;62.33;98535.28;2539865;27;27737498;-68
2021/06/29 03:50:48;;;;;;;;;;;;;;;23.95;62.23;98533.50;2865059;27;19298384;-70
2021/06/29 03:52:40;;;;;;;;;;;;;;;23.90;62.42;98534.44;2884754;27;19359846;-69
2021/06/29 03:54:51;;;;;;;;;;;;;;;23.88;62.56;98533.13;3551192;27;19930;-69
2021/06/29 03:56:43;;;;;;;;;;;;;;;23.91;62.61;98546.94;2876570;27;19346125;-70
2021/06/29 03:58:56;;;;;;;;;;;;;;;23.98;62.44;98548.41;3551035;27;19972;-72
2021/06/29 04:01:08;;;;;;;;;;;;;;;24.07;62.69;98541.09;3550863;27;19942;-75
2021/06/29 04:03:00;;;;;;;;;;;;;;;24.08;62.36;98545.44;2862749;27;18521068;-73
2021/06/29 04:05:08;;;;;;;;;;;;;;;24.06;62.47;98547.66;3528921;27;19928;-72
2021/06/29 04:07:03;;;;;;;;;;;;;;;24.01;62.39;98542.34;2875007;27;19317139;-72
2021/06/29 04:08:55;;;;;;;;;;;;;;;23.98;62.46;98543.75;2885197;27;19279946;-70
2021/06/29 04:10:48;;;;;;;;;;;;;;;24.00;62.51;98543.47;2631738;27;24614389;-68
2021/06/29 04:12:40;;;;;;;;;;;;;;;24.04;62.73;98553.41;2885235;27;19343148;-68
2021/06/29 04:14:32;;;;;;;;;;;;;;;24.10;62.60;98551.38;2886917;27;19325857;-68
2021/06/29 04:16:43;;;;;;;;;;;;;;;24.17;62.81;98546.28;3550248;27;19945;-69
2021/06/29 04:18:54;;;;;;;;;;;;;;;24.24;62.77;98540.38;3551516;27;19923;-70
2021/06/29 04:21:06;;;;;;;;;;;;;;;24.30;63.00;98547.31;3551140;27;19972;-69
2021/06/29 04:23:17;;;;;;;;;;;;;;;24.31;62.86;98546.97;3544998;27;19942;-70
2021/06/29 04:25:11;;;;;;;;;;;;;;;24.29;63.06;98551.13;2863697;27;18599698;-70
2021/06/29 04:27:05;;;;;;;;;;;;;;;24.28;63.31;98544.88;2876235;27;19485771;-68
2021/06/29 04:29:17;;;;;;;;;;;;;;;24.24;63.46;98551.28;3551287;27;20384;-69
2021/06/29 04:31:28;;;;;;;;;;;;;;;24.22;63.69;98559.78;3551026;27;19972;-69
2021/06/29 04:33:19;;;;;;;;;;;;;;;24.18;63.80;98558.78;2881676;27;19310094;-69
2021/06/29 04:35:31;;;;;;;;;;;;;;;24.13;63.96;98550.75;3544240;27;19930;-69
2021/06/29 04:37:43;;;;;;;;;;;;;;;24.13;64.23;98553.47;3539810;27;19930;-69
2021/06/29 04:40:31;;;;;;;;;;;;;;;24.15;64.63;98554.75;2882168;27;19459280;-69
2021/06/29 04:42:23;;;;;;;;;;;;;;;24.19;64.66;98554.94;2885149;27;19382694;-70
2021/06/29 04:44:15;;;;;;;;;;;;;;;24.20;64.30;98548.38;2866659;27;19436635;-70
2021/06/29 04:46:07;;;;;;;;;;;;;;;24.26;64.27;98554.50;2883786;27;19413253;-71
2021/06/29 04:47:59;;;;;;;;;;;;;;;24.31;64.10;98554.34;2848615;27;19373301;-70
2021/06/29 04:49:55;;;;;;;;;;;;;;;24.40;63.55;98548.97;2876844;27;19341793;-71
2021/06/29 04:51:47;;;;;;;;;;;;;;;24.47;63.31;98552.84;2678575;27;24626347;-68
2021/06/29 04:53:58;;;;;;;;;;;;;;;24.51;62.90;98551.13;3525690;27;20452;-67
2021/06/29 04:56:19;;;;;;;;;;;;;;;24.55;62.78;98551.28;3550977;27;19976;-70
2021/06/29 04:58:12;;;;;;;;;;;;;;;24.54;62.54;98544.22;2883164;27;19427986;-70
2021/06/29 05:00:07;;;;;;;;;;;;;;;24.50;62.51;98548.69;2877358;27;19262043;-70
2021/06/29 05:02:18;;;;;;;;;;;;;;;24.56;62.41;98548.25;3550253;27;19924;-70
2021/06/29 05:04:11;;;;;;;;;;;;;;;24.61;62.27;98550.03;2875084;27;19359123;-70
2021/06/29 05:06:03;;;;;;;;;;;;;;;24.62;61.96;98548.09;2432167;27;30894035;-70
2021/06/29 05:08:14;;;;;;;;;;;;;;;24.56;62.06;98542.81;3520897;27;19929;-70
2021/06/29 05:10:25;;;;;;;;;;;;;;;24.56;62.25;98552.91;3551216;27;19938;-69
2021/06/29 05:12:20;;;;;;;;;;;;;;;24.53;61.93;98543.44;2327190;27;33897955;-69
2021/06/29 05:14:13;;;;;;;;;;;;;;;24.46;62.01;98543.09;2873607;27;19395485;-68
2021/06/29 05:16:25;;;;;;;;;;;;;;;24.44;62.19;98549.94;3551070;27;20038;-69
2021/06/29 05:18:18;;;;;;;;;;;;;;;24.46;62.03;98542.28;2882808;27;19450789;-69
2021/06/29 05:20:26;;;;;;;;;;;;;;;24.45;62.10;98548.88;3528052;27;19973;-70
2021/06/29 05:22:37;;;;;;;;;;;;;;;24.37;62.02;98545.75;3545914;27;20047;-69
2021/06/29 05:24:49;;;;;;;;;;;;;;;24.34;62.45;98551.81;3517060;27;20307;-70
2021/06/29 05:26:41;;;;;;;;;;;;;;;24.34;62.35;98546.38;2886594;27;19326642;-69
2021/06/29 05:28:33;;;;;;;;;;;;;;;24.41;62.35;98556.00;2881551;27;19462674;-71
2021/06/29 05:30:25;;;;;;;;;;;;;;;24.43;62.51;98548.34;2886238;27;19350104;-70
2021/06/29 05:32:36;;;;;;;;;;;;;;;24.46;62.65;98555.91;3565058;27;19983;-70
2021/06/29 05:34:29;;;;;;;;;;;;;;;24.50;62.52;98557.69;2871267;27;19409329;-71
2021/06/29 05:36:42;;;;;;;;;;;;;;;24.55;62.52;98548.56;2649958;27;24682564;-70
2021/06/29 05:38:54;;;;;;;;;;;;;;;24.51;62.42;98555.75;3551089;27;19979;-73
2021/06/29 05:40:47;;;;;;;;;;;;;;;24.48;62.34;98553.69;2447790;27;30900609;-75
2021/06/29 05:42:39;;;;;;;;;;;;;;;24.51;62.21;98555.75;2874180;27;19416136;-74
2021/06/29 05:44:46;;;;;;;;;;;;;;;24.58;62.39;98556.13;3538405;27;19924;-75
2021/06/29 05:46:40;;;;;;;;;;;;;;;24.67;61.97;98554.22;2882119;27;19333751;-74
2021/06/29 05:48:52;;;;;;;;;;;;;;;24.76;61.52;98551.53;3538216;27;19984;-74
2021/06/29 05:50:44;;;;;;;;;;;;;;;24.75;61.32;98547.97;2639112;27;24872961;-74
2021/06/29 05:52:36;;;;;;;;;;;;;;;24.76;61.35;98552.31;2865038;27;18553317;-73
2021/06/29 05:54:30;;;;;;;;;;;;;;;24.76;61.21;98546.88;2844215;27;19301758;-74
2021/06/29 05:56:43;;;;;;;;;;;;;;;24.74;60.95;98549.13;3536803;27;19931;-75
2021/06/29 05:58:55;;;;;;;;;;;;;;;24.67;60.90;98548.75;3550980;27;19923;-74
2021/06/29 06:00:47;;;;;;;;;;;;;;;24.60;61.17;98553.84;2875137;27;19333425;-73
2021/06/29 06:02:40;;;;;;;;;;;;;;;24.48;61.23;98550.94;2877022;27;19275985;-73
2021/06/29 06:04:32;;;;;;;;;;;;;;;24.36;61.29;98548.78;2871081;27;19369013;-73
2021/06/29 06:06:23;;;;;;;;;;;;;;;24.29;61.55;98548.41;2539237;27;27815926;-72
2021/06/29 06:08:34;;;;;;;;;;;;;;;24.24;61.46;98546.66;3550534;27;19930;-74
2021/06/29 06:10:26;;;;;;;;;;;;;;;24.25;61.54;98542.00;2887530;27;19311448;-73
2021/06/29 06:12:18;;;;;;;;;;;;;;;24.24;61.69;98546.66;2885499;27;19371037;-74
2021/06/29 06:14:10;;;;;;;;;;;;;;;24.21;61.70;98539.09;2873054;27;19432971;-73
2021/06/29 06:16:02;;;;;;;;;;;;;;;24.25;61.90;98542.81;2860904;27;18670124;-74
2021/06/29 06:17:43;;;;;;;;;;;;;;;24.24;61.76;98557.53;3558452;27;19923;-74
2021/06/29 06:19:34;;;;;;;;;;;;;;;24.23;61.96;98545.03;2882184;27;19289929;-75
2021/06/29 06:21:45;;;;;;;;;;;;;;;24.21;62.00;98551.91;3550802;27;19934;-75
2021/06/29 06:23:37;;;;;;;;;;;;;;;24.22;61.99;98557.03;2884675;27;19202409;-75
2021/06/29 06:25:29;;;;;;;;;;;;;;;24.20;61.96;98551.09;2865828;27;18533634;-74
2021/06/29 06:27:40;;;;;;;;;;;;;;;24.20;62.13;98555.75;3549840;27;20510;-74
2021/06/29 06:29:33;;;;;;;;;;;;;;;24.26;62.12;98555.28;2755963;27;21743425;-75
2021/06/29 06:31:25;;;;;;;;;;;;;;;24.37;61.68;98548.47;2333015;27;33932738;-75
2021/06/29 06:33:33;;;;;;;;;;;;;;;24.54;61.24;98549.69;3522412;27;19978;-74
2021/06/29 06:35:56;;;;;;;;;;;;;;;24.64;61.19;98546.66;3534980;27;20394;-74
2021/06/29 06:37:50;;;;;;;;;;;;;;;24.70;61.34;98545.41;2760317;27;21650564;-74
2021/06/29 06:39:42;;;;;;;;;;;;;;;24.79;61.18;98550.91;2862972;27;18626552;-73
2021/06/29 06:41:34;;;;;;;;;;;;;;;24.86;60.77;98548.50;2433072;27;30841909;-74
2021/06/29 06:43:26;;;;;;;;;;;;;;;24.88;60.82;98543.53;2876600;27;19274924;-74
2021/06/29 06:45:22;;;;;;;;;;;;;;;24.84;60.82;98549.94;2882077;27;19409205;-73
2021/06/29 06:47:39;;;;;;;;;;;;;;;24.73;60.73;98555.69;3520932;27;19924;-71
2021/06/29 06:49:32;;;;;;;;;;;;;;;24.69;60.55;98541.09;2323368;27;33869192;-76
2021/06/29 06:51:44;;;;;;;;;;;;;;;24.64;60.58;98543.16;3568338;27;19934;-73
2021/06/29 06:53:38;;;;;;;;;;;;;;;24.59;60.36;98558.50;2851149;27;18690751;-74
2021/06/29 06:55:31;;;;;;;;;;;;;;;24.56;60.39;98555.63;2860515;27;19274469;-72
2021/06/29 06:57:25;;;;;;;;;;;;;;;24.50;60.18;98560.41;2878725;27;19259395;-73
2021/06/29 06:59:19;;;;;;;;;;;;;;;24.46;60.06;98559.44;2963545;27;15760373;-74
2021/06/29 07:01:45;;;;;;;;;;;;;;;24.47;60.18;98558.28;3527867;27;19927;-74
2021/06/29 07:03:40;;;;;;;;;;;;;;;24.51;60.24;98566.66;2861986;27;19557498;-73
2021/06/29 07:05:52;;;;;;;;;;;;;;;24.54;59.95;98560.56;3546921;27;19972;-74
2021/06/29 07:07:46;;;;;;;;;;;;;;;24.56;59.94;98563.81;2380161;27;31998248;-73
2021/06/29 07:09:38;;;;;;;;;;;;;;;24.57;59.77;98559.94;2851597;27;19336435;-75
2021/06/29 07:12:05;;;;;;;;;;;;;;;24.61;59.90;98565.59;3521968;27;19984;-75
2021/06/29 07:13:59;;;;;;;;;;;;;;;24.63;59.83;98564.16;2838251;27;20156606;-73
2021/06/29 07:16:27;;;;;;;;;;;;;;;24.61;59.51;98571.84;3520051;27;19924;-73
2021/06/29 07:18:21;;;;;;;;;;;;;;;24.64;59.90;98571.19;2961133;27;15791427;-73
2021/06/29 07:20:14;;;;;;;;;;;;;;;24.78;59.63;98571.91;3344986;27;5868969;-73
2021/06/29 07:22:10;;;;;;;;;;;;;;;24.94;59.53;98574.19;3505258;27;19951;-73
2021/06/29 07:24:05;;;;;;;;;;;;;;;25.14;59.24;98576.28;3422478;27;3418395;-74
2021/06/29 07:25:57;;;;;;;;;;;;;;;25.28;59.14;98572.69;3464141;27;2183028;-73
2021/06/29 07:27:48;;;;;;;;;;;;;;;25.38;58.70;98572.38;3477419;27;2070163;-72
2021/06/29 07:29:43;;;;;;;;;;;;;;;25.43;59.16;98574.94;3480041;27;2064559;-74
2021/06/29 07:31:36;;;;;;;;;;;;;;;25.39;58.84;98574.75;3478265;27;2145888;-73
2021/06/29 07:33:30;;;;;;;;;;;;;;;25.30;58.69;98578.59;3444177;27;2908750;-73
2021/06/29 07:35:28;;;;;;;;;;;;;;;25.21;58.87;98581.31;3494587;27;20353;-74
2021/06/29 07:37:21;;;;;;;;;;;;;;;25.05;58.96;98586.41;3478860;27;2062274;-73
2021/06/29 07:39:14;;;;;;;;;;;;;;;24.94;59.33;98585.09;3458522;27;2737286;-74
2021/06/29 07:41:06;;;;;;;;;;;;;;;24.86;59.52;98588.56;3479934;27;2087832;-75
2021/06/29 07:43:01;;;;;;;;;;;;;;;24.81;59.73;98587.63;3453477;27;2068545;-71
2021/06/29 07:44:55;;;;;;;;;;;;;;;24.78;59.61;98590.97;3423606;27;3323171;-74
2021/06/29 07:46:50;;;;;;;;;;;;;;;24.75;59.75;98594.31;3428776;27;2846040;-73
2021/06/29 07:48:47;;;;;;;;;;;;;;;24.70;59.82;98602.63;3489698;27;2088145;-72
2021/06/29 07:50:40;;;;;;;;;;;;;;;24.58;59.62;98597.00;3435247;27;3132056;-73
2021/06/29 07:52:40;;;;;;;;;;;;;;;24.49;59.99;98598.84;3521267;27;19959;-71
2021/06/29 07:54:35;;;;;;;;;;;;;;;24.43;60.02;98591.91;3509673;27;19931;-72
2021/06/29 07:56:30;;;;;;;;;;;;;;;24.45;59.84;98592.44;3495688;27;19967;-73
2021/06/29 07:58:23;;;;;;;;;;;;;;;24.45;60.07;98590.50;3475134;27;2351086;-73
2021/06/29 08:00:16;;;;;;;;;;;;;;;24.52;59.77;98588.13;3450058;27;3174651;-72
2021/06/29 08:02:08;;;;;;;;;;;;;;;24.57;59.41;98592.63;3480209;27;2057265;-72
2021/06/29 08:04:05;;;;;;;;;;;;;;;24.63;59.41;98590.56;3482621;27;2091482;-72
2021/06/29 08:05:57;;;;;;;;;;;;;;;24.65;59.24;98591.88;3471043;27;2130183;-73
2021/06/29 08:07:53;;;;;;;;;;;;;;;24.68;58.99;98588.53;3480142;27;2046822;-74
2021/06/29 08:09:50;;;;;;;;;;;;;;;24.71;59.20;98589.81;3457168;27;2062769;-75
2021/06/29 08:11:43;;;;;;;;;;;;;;;24.78;59.21;98590.16;3466562;27;2463753;-75
2021/06/29 08:13:38;;;;;;;;;;;;;;;24.87;59.59;98601.09;3493635;28;19973;-71
2021/06/29 08:15:31;;;;;;;;;;;;;;;24.92;59.33;98592.78;3481457;27;2124020;-73
2021/06/29 08:17:23;;;;;;;;;;;;;;;24.93;59.61;98600.63;3456695;27;2542182;-74
2021/06/29 08:19:17;;;;;;;;;;;;;;;24.94;59.65;98596.78;3494017;27;2045028;-73
2021/06/29 08:21:39;;;;;;;;;;;;;;;24.99;59.94;98602.09;3492914;27;2056910;-73
2021/06/29 08:23:32;;;;;;;;;;;;;;;24.98;59.94;98602.41;3489968;27;2060959;-73
2021/06/29 08:25:24;;;;;;;;;;;;;;;24.94;59.75;98596.00;3492646;27;2075267;-67
2021/06/29 08:27:17;;;;;;;;;;;;;;;24.91;59.65;98607.50;3474842;27;2414949;-67
2021/06/29 08:29:11;;;;;;;;;;;;;;;24.89;60.04;98605.13;3535104;27;19959;-68
2021/06/29 08:31:04;;;;;;;;;;;;;;;24.84;59.70;98605.25;3450191;27;2061124;-75
2021/06/29 08:32:58;;;;;;;;;;;;;;;24.74;59.68;98603.63;3522540;27;19974;-77
2021/06/29 08:34:51;;;;;;;;;;;;;;;24.59;59.63;98618.44;3429841;27;3180901;-74
2021/06/29 08:36:44;;;;;;;;;;;;;;;24.53;59.60;98624.38;3493479;27;2048320;-73
2021/06/29 08:38:37;;;;;;;;;;;;;;;24.52;59.71;98626.25;3490856;27;2070142;-76
2021/06/29 08:40:29;;;;;;;;;;;;;;;24.53;59.67;98619.72;3286273;27;7852318;-76
2021/06/29 08:42:21;;;;;;;;;;;;;;;24.57;59.65;98619.88;3460701;27;2960155;-72
2021/06/29 08:44:15;;;;;;;;;;;;;;;24.61;59.48;98620.88;3470625;27;2389771;-71
2021/06/29 08:46:10;;;;;;;;;;;;;;;24.67;59.28;98625.06;3493509;28;19974;-72
2021/06/29 08:48:04;;;;;;;;;;;;;;;24.74;59.41;98619.97;3491505;27;2063148;-71
2021/06/29 08:49:57;;;;;;;;;;;;;;;24.81;59.66;98625.78;3496280;27;2054723;-72
2021/06/29 08:51:52;;;;;;;;;;;;;;;24.86;59.29;98627.56;3509070;27;19968;-71
2021/06/29 08:53:45;;;;;;;;;;;;;;;24.87;59.17;98620.97;3489535;27;2067795;-71
2021/06/29 08:55:58;;;;;;;;;;;;;;;24.88;59.05;98617.13;3494355;28;20489;-70
2021/06/29 08:57:51;;;;;;;;;;;;;;;24.93;59.42;98621.63;3489531;27;2150440;-72
2021/06/29 08:59:43;;;;;;;;;;;;;;;24.98;59.18;98624.22;3492197;27;2074616;-71
2021/06/29 09:01:37;;;;;;;;;;;;;;;25.04;59.28;98633.84;3508203;27;19963;-72
2021/06/29 09:03:32;;;;;;;;;;;;;;;25.09;59.15;98625.53;3522359;27;19958;-70
2021/06/29 09:05:28;;;;;;;;;;;;;;;25.13;58.98;98626.50;3494468;28;19955;-71
2021/06/29 09:07:24;;;;;;;;;;;;;;;25.17;58.70;98630.25;3508244;27;19964;-72
2021/06/29 09:09:25;;;;;;;;;;;;;;;25.22;58.63;98623.81;3522632;27;19971;-71
2021/06/29 09:11:17;;;;;;;;;;;;;;;25.21;58.57;98628.47;3490413;27;2129345;-72
2021/06/29 09:13:10;;;;;;;;;;;;;;;25.18;58.55;98623.66;3479482;27;2049480;-72
2021/06/29 09:15:25;;;;;;;;;;;;;;;25.17;58.31;98632.16;3509082;27;20324;-72
2021/06/29 09:17:18;;;;;;;;;;;;;;;25.13;58.49;98621.06;3493039;27;2063341;-72
2021/06/29 09:19:10;;;;;;;;;;;;;;;25.09;58.06;98628.25;3492571;27;2061211;-71
2021/06/29 09:21:05;;;;;;;;;;;;;;;25.03;58.08;98627.59;3522400;27;19963;-74
2021/06/29 09:22:58;;;;;;;;;;;;;;;24.99;58.50;98628.56;3491948;27;2087042;-71
2021/06/29 09:24:50;;;;;;;;;;;;;;;24.96;58.27;98627.28;3481210;27;2048912;-71
2021/06/29 09:26:42;;;;;;;;;;;;;;;24.93;58.46;98632.53;3463880;27;2088407;-72
2021/06/29 09:28:46;;;;;;;;;;;;;;;24.94;58.70;98628.72;3492504;27;2066717;-72
2021/06/29 09:30:45;;;;;;;;;;;;;;;25.02;58.59;98625.19;3522253;27;19952;-72
2021/06/29 09:32:37;;;;;;;;;;;;;;;25.07;58.35;98644.16;3492650;27;2058772;-71
2021/06/29 09:35:04;;;;;;;;;;;;;;;25.06;58.05;98641.72;3536618;27;19955;-71
2021/06/29 09:36:58;;;;;;;;;;;;;;;25.00;58.07;98630.97;3508471;27;19975;-73
2021/06/29 09:38:52;;;;;;;;;;;;;;;24.95;58.35;98641.22;3477386;27;2114699;-70
2021/06/29 09:41:01;;;;;;;;;;;;;;;24.90;58.32;98644.06;3523583;27;19952;-72
2021/06/29 09:43:06;;;;;;;;;;;;;;;24.88;58.41;98646.31;3493723;27;2057874;-71
2021/06/29 09:45:30;;;;;;;;;;;;;;;24.92;58.15;98645.38;3523151;27;19966;-71
2021/06/29 09:47:26;;;;;;;;;;;;;;;25.01;57.98;98642.66;3509180;27;20330;-71
2021/06/29 09:49:22;;;;;;;;;;;;;;;25.08;57.69;98650.41;3522424;27;19993;-71
2021/06/29 09:51:21;;;;;;;;;;;;;;;25.11;58.03;98650.56;3492737;27;2066978;-72
2021/06/29 09:53:15;;;;;;;;;;;;;;;25.13;57.51;98655.72;3493178;27;2048501;-71
2021/06/29 09:55:08;;;;;;;;;;;;;;;25.11;57.89;98650.56;3439932;27;2375064;-72
2021/06/29 09:57:09;;;;;;;;;;;;;;;25.12;57.84;98648.63;3522455;27;19948;-71
2021/06/29 09:59:03;;;;;;;;;;;;;;;25.12;57.71;98656.81;3492912;27;2046586;-72
2021/06/29 10:00:57;;;;;;;;;;;;;;;25.09;57.79;98654.72;3482075;27;2373142;-71
2021/06/29 10:02:49;;;;;;;;;;;;;;;25.11;57.95;98656.00;3465214;27;2056067;-72
2021/06/29 10:04:43;;;;;;;;;;;;;;;25.15;57.86;98659.72;3482263;27;2066143;-71
2021/06/29 10:06:38;;;;;;;;;;;;;;;25.13;57.42;98651.06;3522410;27;19971;-73
2021/06/29 10:08:31;;;;;;;;;;;;;;;25.11;57.68;98650.56;3444444;27;3424247;-70
2021/06/29 10:10:25;;;;;;;;;;;;;;;25.07;57.85;98657.78;3508516;27;19951;-71
2021/06/29 10:12:25;;;;;;;;;;;;;;;25.03;57.78;98659.50;3492761;27;2058218;-73
2021/06/29 10:14:20;;;;;;;;;;;;;;;25.00;57.71;98654.69;3522321;27;19963;-71